createdAt,value
2023-05-17T00:00:14.489Z,99.90
2023-05-17T00:02:43.949Z,99.90
2023-05-17T00:05:12.669Z,99.90
2023-05-17T00:07:40.708Z,99.90
2023-05-17T00:10:09.649Z,99.90
2023-05-17T00:12:37.849Z,99.90
2023-05-17T00:15:06.747Z,99.90
2023-05-17T00:17:34.814Z,99.90
2023-05-17T00:20:04.588Z,99.90
2023-05-17T00:22:32.533Z,99.90
2023-05-17T00:25:00.547Z,99.90
2023-05-17T00:27:28.439Z,99.90
2023-05-17T00:29:56.298Z,99.90
2023-05-17T00:32:24.336Z,99.90
2023-05-17T00:34:52.414Z,99.90
2023-05-17T00:37:21.786Z,99.90
2023-05-17T00:39:49.809Z,99.90
2023-05-17T00:42:17.737Z,99.90
2023-05-17T00:44:45.922Z,99.90
2023-05-17T00:47:13.946Z,99.90
2023-05-17T00:49:41.936Z,99.90
2023-05-17T00:52:10.001Z,99.90
2023-05-17T00:54:40.322Z,99.90
2023-05-17T00:57:09.915Z,99.90
2023-05-17T00:59:38.366Z,99.90
2023-05-17T01:02:07.040Z,99.90
2023-05-17T01:04:35.074Z,99.90
2023-05-17T01:07:03.082Z,99.90
2023-05-17T01:09:31.686Z,99.90
2023-05-17T01:12:11.065Z,99.90
2023-05-17T01:14:49.130Z,99.90
2023-05-17T01:17:22.029Z,99.90
2023-05-17T01:20:00.927Z,99.90
2023-05-17T01:22:40.095Z,99.90
2023-05-17T01:25:40.833Z,99.90
2023-05-17T01:28:11.827Z,99.90
2023-05-17T01:30:40.804Z,99.90
2023-05-17T01:33:10.044Z,99.90
2023-05-17T01:35:38.016Z,99.90
2023-05-17T01:38:05.977Z,99.90
2023-05-17T01:40:37.031Z,99.90
2023-05-17T01:43:16.280Z,99.90
2023-05-17T01:45:53.802Z,99.90
2023-05-17T01:48:24.853Z,99.90
2023-05-17T01:50:55.611Z,99.90
2023-05-17T01:53:31.216Z,99.90
2023-05-17T01:56:04.785Z,99.90
2023-05-17T01:58:45.676Z,99.90
2023-05-17T02:01:15.659Z,99.90
2023-05-17T02:03:43.907Z,99.90
2023-05-17T02:06:11.843Z,99.90
2023-05-17T02:08:39.819Z,99.90
2023-05-17T02:11:07.807Z,99.90
2023-05-17T02:13:37.080Z,99.90
2023-05-17T02:16:05.630Z,99.90
2023-05-17T02:18:35.507Z,99.90
2023-05-17T02:21:03.700Z,99.90
2023-05-17T02:23:31.612Z,99.90
2023-05-17T02:25:59.502Z,99.90
2023-05-17T02:28:28.579Z,99.90
2023-05-17T02:30:57.867Z,99.90
2023-05-17T02:33:25.921Z,99.90
2023-05-17T02:35:54.001Z,99.90
2023-05-17T02:38:22.004Z,99.90
2023-05-17T02:40:49.916Z,99.90
2023-05-17T02:43:17.892Z,99.90
2023-05-17T02:45:45.932Z,99.90
2023-05-17T02:48:15.723Z,99.90
2023-05-17T02:50:44.068Z,99.90
2023-05-17T02:53:12.069Z,99.90
2023-05-17T02:55:39.993Z,99.90
2023-05-17T02:58:07.954Z,99.90
2023-05-17T03:00:35.881Z,99.90
2023-05-17T03:03:03.960Z,99.90
2023-05-17T03:05:34.980Z,99.90
2023-05-17T03:08:02.895Z,99.90
2023-05-17T03:10:30.869Z,99.90
2023-05-17T03:12:58.854Z,99.90
2023-05-17T03:15:29.935Z,99.90
2023-05-17T03:17:58.236Z,99.90
2023-05-17T03:20:26.483Z,99.90
2023-05-17T03:22:55.787Z,99.90
2023-05-17T03:25:23.711Z,99.90
2023-05-17T03:27:51.676Z,99.90
2023-05-17T03:30:19.925Z,99.90
2023-05-17T03:32:48.045Z,99.90
2023-05-17T03:35:16.299Z,99.90
2023-05-17T03:37:44.194Z,99.90
2023-05-17T03:40:13.883Z,99.90
2023-05-17T03:42:41.881Z,99.90
2023-05-17T03:45:10.604Z,99.90
2023-05-17T03:47:38.675Z,99.90
2023-05-17T03:50:08.114Z,99.90
2023-05-17T03:52:36.350Z,99.90
2023-05-17T03:55:04.541Z,99.90
2023-05-17T03:57:33.863Z,99.90
2023-05-17T04:00:01.870Z,99.90
2023-05-17T04:02:29.905Z,99.90
2023-05-17T04:04:57.897Z,99.90
2023-05-17T04:07:25.988Z,99.90
2023-05-17T04:09:54.275Z,99.90
2023-05-17T04:12:22.190Z,99.90
2023-05-17T04:14:54.285Z,99.90
2023-05-17T04:17:22.361Z,99.90
2023-05-17T04:19:50.391Z,99.90
2023-05-17T04:22:18.531Z,99.90
2023-05-17T04:24:46.512Z,99.90
2023-05-17T04:27:14.471Z,99.90
2023-05-17T04:29:42.386Z,99.90
2023-05-17T04:32:11.756Z,99.90
2023-05-17T04:34:39.729Z,99.90
2023-05-17T04:37:07.917Z,99.90
2023-05-17T04:39:35.897Z,99.90
2023-05-17T04:42:04.384Z,99.90
2023-05-17T04:44:32.398Z,99.90
2023-05-17T04:47:00.368Z,99.90
2023-05-17T04:49:29.709Z,99.90
2023-05-17T04:51:57.639Z,99.90
2023-05-17T04:54:26.012Z,99.90
2023-05-17T04:56:53.922Z,99.90
2023-05-17T04:59:21.881Z,99.90
2023-05-17T05:01:49.827Z,99.90
2023-05-17T05:04:17.949Z,99.90
2023-05-17T05:06:47.350Z,99.90
2023-05-17T05:09:15.312Z,99.90
2023-05-17T05:11:44.854Z,99.90
2023-05-17T05:14:12.872Z,99.90
2023-05-17T05:16:40.836Z,99.90
2023-05-17T05:19:09.238Z,99.90
2023-05-17T05:21:37.622Z,99.90
2023-05-17T05:24:07.564Z,99.90
2023-05-17T05:26:35.469Z,99.90
2023-05-17T05:29:03.383Z,99.90
2023-05-17T05:31:31.499Z,99.90
2023-05-17T05:33:59.645Z,99.90
2023-05-17T05:36:27.717Z,99.90
2023-05-17T05:38:55.716Z,99.90
2023-05-17T05:41:24.977Z,99.90
2023-05-17T05:43:52.941Z,99.90
2023-05-17T05:46:20.916Z,99.90
2023-05-17T05:48:48.953Z,99.90
2023-05-17T05:51:17.002Z,99.90
2023-05-17T05:53:45.013Z,99.90
2023-05-17T05:56:13.087Z,99.90
2023-05-17T05:58:42.476Z,99.90
2023-05-17T06:01:10.540Z,99.90
2023-05-17T06:03:38.569Z,99.90
2023-05-17T06:06:07.141Z,99.90
2023-05-17T06:08:35.386Z,99.90
2023-05-17T06:11:03.481Z,99.90
2023-05-17T06:13:31.431Z,99.90
2023-05-17T06:16:00.746Z,99.90
2023-05-17T06:18:28.748Z,99.90
2023-05-17T06:20:56.723Z,99.90
2023-05-17T06:23:24.760Z,99.90
2023-05-17T06:25:53.453Z,99.90
2023-05-17T06:28:21.402Z,99.90
2023-05-17T06:30:49.408Z,99.90
2023-05-17T06:33:18.900Z,99.90
2023-05-17T06:35:56.066Z,99.90
2023-05-17T06:38:25.988Z,99.90
2023-05-17T06:40:54.665Z,99.90
2023-05-17T06:43:23.067Z,99.90
2023-05-17T06:45:51.476Z,99.90
2023-05-17T06:48:23.025Z,99.90
2023-05-17T06:50:51.256Z,99.90
2023-05-17T06:53:19.248Z,99.90
2023-05-17T06:55:47.299Z,99.90
2023-05-17T06:58:15.261Z,99.90
2023-05-17T07:00:43.217Z,99.90
2023-05-17T07:03:11.213Z,99.90
2023-05-17T07:05:43.441Z,99.90
2023-05-17T07:08:11.513Z,99.90
2023-05-17T07:10:39.454Z,99.90
2023-05-17T07:13:07.486Z,99.90
2023-05-17T07:15:35.481Z,99.90
2023-05-17T07:18:03.539Z,99.90
2023-05-17T07:20:31.678Z,99.90
2023-05-17T07:23:01.230Z,99.90
2023-05-17T07:25:29.449Z,99.90
2023-05-17T07:27:57.583Z,99.90
2023-05-17T07:30:25.773Z,99.90
2023-05-17T07:32:53.987Z,99.90
2023-05-17T07:35:22.095Z,99.90
2023-05-17T07:37:50.136Z,95.60
2023-05-17T07:40:19.902Z,94.80
2023-05-17T07:42:47.918Z,95.40
2023-05-17T07:45:16.074Z,94.60
2023-05-17T07:47:44.126Z,96.60
2023-05-17T07:50:12.764Z,94.50
2023-05-17T07:52:40.752Z,96.80
2023-05-17T07:55:09.700Z,96.40
2023-05-17T07:57:39.015Z,94.40
2023-05-17T08:00:08.985Z,93.80
2023-05-17T08:02:37.031Z,93.30
2023-05-17T08:05:05.447Z,92.90
2023-05-17T08:07:35.753Z,93.20
2023-05-17T08:10:03.833Z,94.30
2023-05-17T08:12:31.977Z,94.10
2023-05-17T08:15:01.318Z,95.20
2023-05-17T08:17:29.311Z,93.60
2023-05-17T08:19:57.645Z,96.10
2023-05-17T08:22:26.616Z,92.80
2023-05-17T08:24:54.616Z,92.30
2023-05-17T08:27:22.576Z,90.60
2023-05-17T08:29:51.860Z,89.60
2023-05-17T08:32:21.249Z,88.60
2023-05-17T08:34:49.271Z,90.70
2023-05-17T08:37:17.272Z,90.10
2023-05-17T08:39:45.341Z,85.40
2023-05-17T08:42:14.371Z,86.00
2023-05-17T08:44:43.420Z,87.60
2023-05-17T08:47:12.336Z,84.90
2023-05-17T08:49:42.282Z,81.70
2023-05-17T08:52:11.991Z,81.10
2023-05-17T08:54:40.067Z,83.10
2023-05-17T08:57:08.694Z,79.20
2023-05-17T08:59:37.267Z,78.80
2023-05-17T09:02:07.317Z,77.90
2023-05-17T09:04:35.385Z,77.70
2023-05-17T09:07:05.420Z,78.30
2023-05-17T09:09:34.211Z,78.50
2023-05-17T09:12:04.278Z,79.30
2023-05-17T09:14:35.978Z,79.70
2023-05-17T09:17:04.129Z,80.60
2023-05-17T09:19:32.721Z,75.30
2023-05-17T09:22:02.561Z,73.70
2023-05-17T09:24:32.131Z,74.10
2023-05-17T09:27:03.803Z,74.30
2023-05-17T09:29:33.435Z,75.50
2023-05-17T09:32:14.808Z,77.00
2023-05-17T09:34:43.378Z,75.90
2023-05-17T09:37:16.070Z,76.60
2023-05-17T09:39:46.894Z,76.60
2023-05-17T09:42:16.773Z,77.00
2023-05-17T09:44:49.695Z,79.50
2023-05-17T09:47:25.273Z,76.30
2023-05-17T09:49:53.330Z,74.60
2023-05-17T09:52:22.262Z,75.30
2023-05-17T09:54:55.164Z,74.50
2023-05-17T09:57:23.772Z,74.70
2023-05-17T09:59:53.059Z,75.50
2023-05-17T10:02:24.110Z,78.40
2023-05-17T10:04:54.024Z,72.20
2023-05-17T10:07:22.325Z,74.00
2023-05-17T10:09:51.018Z,75.70
2023-05-17T10:12:24.340Z,76.60
2023-05-17T10:14:56.083Z,75.60
2023-05-17T10:17:24.514Z,72.80
2023-05-17T10:19:53.442Z,72.80
2023-05-17T10:22:24.056Z,73.80
2023-05-17T10:24:53.130Z,72.00
2023-05-17T10:27:22.931Z,71.00
2023-05-17T10:29:53.127Z,69.50
2023-05-17T10:32:23.489Z,67.80
2023-05-17T10:35:05.957Z,71.10
2023-05-17T10:37:40.254Z,69.60
2023-05-17T10:40:13.082Z,70.50
2023-05-17T10:42:46.381Z,70.50
2023-05-17T10:45:14.759Z,68.40
2023-05-17T10:47:43.636Z,71.30
2023-05-17T10:50:14.933Z,70.50
2023-05-17T10:52:48.427Z,70.60
2023-05-17T10:55:20.650Z,73.30
2023-05-17T10:58:16.040Z,72.20
2023-05-17T11:00:47.150Z,71.60
2023-05-17T11:03:20.741Z,70.20
2023-05-17T11:06:23.494Z,67.00
2023-05-17T11:09:08.844Z,64.80
2023-05-17T11:11:36.885Z,66.50
2023-05-17T11:14:06.692Z,65.40
2023-05-17T11:16:37.724Z,66.90
2023-05-17T11:19:10.482Z,66.60
2023-05-17T11:21:46.913Z,68.60
2023-05-17T11:24:22.029Z,66.50
2023-05-17T11:26:51.889Z,67.60
2023-05-17T11:29:21.968Z,67.60
2023-05-17T11:31:53.654Z,68.00
2023-05-17T11:34:25.532Z,67.30
2023-05-17T11:36:54.532Z,65.90
2023-05-17T11:39:24.017Z,65.30
2023-05-17T11:41:54.521Z,68.00
2023-05-17T11:44:31.430Z,65.70
2023-05-17T11:47:04.365Z,64.40
2023-05-17T11:49:36.207Z,64.80
2023-05-17T11:52:05.745Z,66.20
2023-05-17T11:54:34.319Z,63.90
2023-05-17T11:57:03.950Z,65.30
2023-05-17T11:59:39.783Z,62.80
2023-05-17T12:02:07.936Z,63.40
2023-05-17T12:04:38.487Z,64.40
2023-05-17T12:07:10.455Z,61.70
2023-05-17T12:09:39.661Z,61.20
2023-05-17T12:12:08.621Z,61.30
2023-05-17T12:14:38.287Z,62.10
2023-05-17T12:17:09.544Z,63.30
2023-05-17T12:19:38.239Z,62.90
2023-05-17T12:22:12.496Z,63.60
2023-05-17T12:24:42.522Z,64.30
2023-05-17T12:27:11.222Z,61.70
2023-05-17T12:29:41.161Z,60.40
2023-05-17T12:32:11.107Z,60.60
2023-05-17T12:34:41.799Z,61.30
2023-05-17T12:37:11.141Z,60.80
2023-05-17T12:39:40.427Z,62.40
2023-05-17T12:42:09.877Z,62.90
2023-05-17T12:44:37.890Z,61.90
2023-05-17T12:47:07.728Z,61.40
2023-05-17T12:49:40.494Z,59.00
2023-05-17T12:52:09.014Z,59.50
2023-05-17T12:54:37.091Z,59.70
2023-05-17T12:57:13.773Z,59.20
2023-05-17T12:59:49.114Z,58.80
2023-05-17T13:02:19.949Z,59.00
2023-05-17T13:04:48.357Z,58.70
2023-05-17T13:07:24.766Z,59.50
2023-05-17T13:09:52.856Z,58.20
2023-05-17T13:12:22.914Z,57.90
2023-05-17T13:14:53.270Z,58.80
2023-05-17T13:17:27.214Z,58.10
2023-05-17T13:19:57.445Z,58.10
2023-05-17T13:22:26.410Z,58.50
2023-05-17T13:24:55.308Z,58.60
2023-05-17T13:27:23.263Z,58.90
2023-05-17T13:29:51.315Z,59.70
2023-05-17T13:32:19.318Z,60.30
2023-05-17T13:34:48.601Z,58.20
2023-05-17T13:37:16.685Z,58.60
2023-05-17T13:39:44.771Z,60.10
2023-05-17T13:42:13.963Z,58.30
2023-05-17T13:44:41.974Z,58.00
2023-05-17T13:47:10.063Z,57.10
2023-05-17T13:49:38.280Z,58.20
2023-05-17T13:52:09.879Z,56.50
2023-05-17T13:54:39.145Z,57.10
2023-05-17T13:57:07.820Z,56.10
2023-05-17T13:59:35.916Z,56.80
2023-05-17T14:02:04.825Z,57.80
2023-05-17T14:04:33.244Z,58.60
2023-05-17T14:07:01.872Z,58.30
2023-05-17T14:09:33.814Z,57.40
2023-05-17T14:12:02.198Z,57.90
2023-05-17T14:14:30.893Z,58.90
2023-05-17T14:16:58.956Z,57.90
2023-05-17T14:19:27.215Z,58.70
2023-05-17T14:21:55.980Z,58.90
2023-05-17T14:24:23.981Z,56.90
2023-05-17T14:26:53.509Z,57.20
2023-05-17T14:29:21.539Z,58.50
2023-05-17T14:31:49.645Z,58.10
2023-05-17T14:34:17.902Z,58.70
2023-05-17T14:36:46.047Z,56.60
2023-05-17T14:39:14.096Z,56.40
2023-05-17T14:41:44.158Z,55.80
2023-05-17T14:44:14.704Z,56.20
2023-05-17T14:46:42.681Z,56.80
2023-05-17T14:49:10.744Z,56.80
2023-05-17T14:51:38.896Z,56.60
2023-05-17T14:54:06.988Z,57.40
2023-05-17T14:56:35.305Z,57.00
2023-05-17T14:59:03.811Z,57.90
2023-05-17T15:01:33.408Z,56.90
2023-05-17T15:04:01.855Z,58.50
2023-05-17T15:06:30.255Z,58.20
2023-05-17T15:08:58.553Z,57.20
2023-05-17T15:11:27.231Z,59.00
2023-05-17T15:13:55.384Z,58.00
2023-05-17T15:16:23.485Z,58.30
2023-05-17T15:18:54.805Z,59.10
2023-05-17T15:21:24.009Z,58.80
2023-05-17T15:23:51.963Z,58.70
2023-05-17T15:26:19.985Z,57.60
2023-05-17T15:28:49.971Z,58.90
2023-05-17T15:31:18.045Z,59.20
2023-05-17T15:33:46.241Z,59.80
2023-05-17T15:36:16.423Z,59.50
2023-05-17T15:38:44.568Z,60.90
2023-05-17T15:41:14.883Z,60.40
2023-05-17T15:43:43.274Z,58.60
2023-05-17T15:46:11.799Z,58.00
2023-05-17T15:48:39.919Z,59.50
2023-05-17T15:51:08.006Z,58.50
2023-05-17T15:53:37.359Z,58.50
2023-05-17T15:56:05.756Z,59.00
2023-05-17T15:58:34.178Z,58.30
2023-05-17T16:01:05.088Z,58.60
2023-05-17T16:03:33.396Z,59.40
2023-05-17T16:06:01.563Z,59.50
2023-05-17T16:08:29.700Z,58.90
2023-05-17T16:11:00.870Z,59.50
2023-05-17T16:13:30.309Z,59.50
2023-05-17T16:15:58.980Z,59.50
2023-05-17T16:18:27.123Z,60.50
2023-05-17T16:21:02.994Z,59.80
2023-05-17T16:23:31.327Z,61.60
2023-05-17T16:26:00.668Z,59.40
2023-05-17T16:28:29.107Z,58.60
2023-05-17T16:30:57.165Z,58.50
2023-05-17T16:33:25.237Z,58.30
2023-05-17T16:35:53.358Z,58.60
2023-05-17T16:38:21.316Z,56.90
2023-05-17T16:40:50.451Z,58.30
2023-05-17T16:43:19.738Z,59.00
2023-05-17T16:45:47.881Z,59.10
2023-05-17T16:48:17.523Z,58.90
2023-05-17T16:50:45.981Z,57.90
2023-05-17T16:53:14.050Z,58.00
2023-05-17T16:55:42.230Z,58.40
2023-05-17T16:58:10.339Z,58.90
2023-05-17T17:00:39.693Z,59.40
2023-05-17T17:03:09.527Z,59.00
2023-05-17T17:05:37.951Z,58.70
2023-05-17T17:08:06.229Z,59.60
2023-05-17T17:10:36.013Z,59.70
2023-05-17T17:13:04.916Z,59.90
2023-05-17T17:15:33.001Z,60.20
2023-05-17T17:18:02.527Z,61.20
2023-05-17T17:20:30.878Z,61.90
2023-05-17T17:22:59.073Z,62.10
2023-05-17T17:25:27.199Z,60.90
2023-05-17T17:27:57.166Z,61.60
2023-05-17T17:30:25.293Z,60.50
2023-05-17T17:32:53.314Z,60.60
2023-05-17T17:35:23.012Z,62.00
2023-05-17T17:37:51.064Z,62.00
2023-05-17T17:40:19.187Z,62.60
2023-05-17T17:42:47.864Z,63.00
2023-05-17T17:45:15.868Z,63.00
2023-05-17T17:47:44.050Z,63.00
2023-05-17T17:50:12.459Z,63.40
2023-05-17T17:52:41.774Z,64.00
2023-05-17T17:55:12.978Z,63.30
2023-05-17T17:57:41.657Z,63.20
2023-05-17T18:00:12.013Z,63.90
2023-05-17T18:02:40.265Z,63.80
2023-05-17T18:05:09.044Z,63.20
2023-05-17T18:07:37.089Z,64.20
2023-05-17T18:10:07.428Z,63.50
2023-05-17T18:12:35.487Z,64.40
2023-05-17T18:15:03.546Z,64.70
2023-05-17T18:17:31.642Z,65.90
2023-05-17T18:19:59.637Z,66.40
2023-05-17T18:22:27.705Z,65.70
2023-05-17T18:24:55.677Z,66.30
2023-05-17T18:27:25.289Z,66.80
2023-05-17T18:29:53.448Z,67.40
2023-05-17T18:32:21.537Z,67.50
2023-05-17T18:34:49.475Z,68.40
2023-05-17T18:37:17.490Z,69.30
2023-05-17T18:39:45.460Z,68.40
2023-05-17T18:42:13.488Z,68.90
2023-05-17T18:44:42.783Z,69.20
2023-05-17T18:47:12.047Z,69.10
2023-05-17T18:49:42.228Z,69.70
2023-05-17T18:52:10.188Z,70.80
2023-05-17T18:54:38.131Z,71.40
2023-05-17T18:57:06.554Z,71.90
2023-05-17T18:59:34.557Z,73.40
2023-05-17T19:02:05.089Z,73.40
2023-05-17T19:04:33.262Z,73.70
2023-05-17T19:07:01.380Z,76.50
2023-05-17T19:09:29.378Z,76.40
2023-05-17T19:11:57.995Z,77.60
2023-05-17T19:14:26.162Z,79.20
2023-05-17T19:16:56.902Z,81.00
2023-05-17T19:19:26.876Z,81.70
2023-05-17T19:21:54.902Z,84.20
2023-05-17T19:24:22.790Z,86.90
2023-05-17T19:26:50.787Z,88.20
2023-05-17T19:29:18.962Z,91.10
2023-05-17T19:31:46.967Z,91.40
2023-05-17T19:34:15.017Z,92.10
2023-05-17T19:36:44.319Z,92.90
2023-05-17T19:39:12.419Z,94.30
2023-05-17T19:41:40.385Z,94.60
2023-05-17T19:44:08.721Z,95.80
2023-05-17T19:46:36.678Z,96.20
2023-05-17T19:49:05.003Z,97.20
2023-05-17T19:51:32.963Z,97.80
2023-05-17T19:54:02.295Z,98.60
2023-05-17T19:56:30.224Z,99.60
2023-05-17T19:58:58.151Z,99.90
2023-05-17T20:01:26.116Z,99.90
2023-05-17T20:03:54.316Z,99.90
2023-05-17T20:06:22.437Z,99.90
2023-05-17T20:08:50.364Z,99.90
2023-05-17T20:11:19.864Z,99.90
2023-05-17T20:13:47.874Z,99.90
2023-05-17T20:16:15.990Z,99.90
2023-05-17T20:18:44.512Z,99.90
2023-05-17T20:21:15.146Z,99.90
2023-05-17T20:23:43.276Z,99.90
2023-05-17T20:26:16.289Z,99.90
2023-05-17T20:28:45.791Z,99.90
2023-05-17T20:31:13.928Z,99.90
2023-05-17T20:33:44.070Z,99.90
2023-05-17T20:36:14.541Z,99.90
2023-05-17T20:38:43.354Z,99.90
2023-05-17T20:41:14.975Z,99.90
2023-05-17T20:43:46.468Z,99.90
2023-05-17T20:46:15.277Z,99.90
2023-05-17T20:48:46.080Z,99.90
2023-05-17T20:51:14.233Z,99.90
2023-05-17T20:53:42.332Z,99.90
2023-05-17T20:56:10.542Z,99.90
2023-05-17T20:58:38.573Z,99.90
2023-05-17T21:01:08.439Z,99.90
2023-05-17T21:03:39.907Z,99.90
2023-05-17T21:06:08.503Z,99.90
2023-05-17T21:08:37.422Z,99.90
2023-05-17T21:11:05.632Z,99.90
2023-05-17T21:13:34.024Z,99.90
2023-05-17T21:16:02.090Z,99.90
2023-05-17T21:18:31.474Z,99.90
2023-05-17T21:20:59.904Z,99.90
2023-05-17T21:23:27.845Z,99.90
2023-05-17T21:25:55.784Z,99.90
2023-05-17T21:28:24.980Z,99.90
2023-05-17T21:30:53.400Z,99.90
2023-05-17T21:33:22.266Z,99.90
2023-05-17T21:35:52.147Z,99.90
2023-05-17T21:38:20.108Z,99.90
2023-05-17T21:40:48.073Z,99.90
2023-05-17T21:43:16.062Z,99.90
2023-05-17T21:45:44.085Z,99.90
2023-05-17T21:48:12.179Z,99.90
2023-05-17T21:50:40.178Z,99.90
2023-05-17T21:53:09.532Z,99.90
2023-05-17T21:55:51.404Z,99.90
2023-05-17T21:58:25.529Z,99.90
2023-05-17T22:00:53.914Z,99.90
2023-05-17T22:03:22.307Z,99.90
2023-05-17T22:05:51.104Z,99.90
2023-05-17T22:08:20.512Z,99.90
2023-05-17T22:10:50.251Z,99.90
2023-05-17T22:13:19.137Z,99.90
2023-05-17T22:15:47.669Z,99.90
2023-05-17T22:18:15.652Z,99.90
2023-05-17T22:20:43.725Z,99.90
2023-05-17T22:23:11.865Z,99.90
2023-05-17T22:25:41.342Z,99.90
2023-05-17T22:28:09.300Z,99.90
2023-05-17T22:30:37.318Z,99.90
2023-05-17T22:33:05.326Z,99.90
2023-05-17T22:35:33.278Z,99.90
2023-05-17T22:38:01.251Z,99.90
2023-05-17T22:40:29.396Z,99.90
2023-05-17T22:42:59.715Z,99.90
2023-05-17T22:45:32.830Z,99.90
2023-05-17T22:48:02.917Z,99.90
2023-05-17T22:50:34.627Z,99.90
2023-05-17T22:53:02.611Z,99.90
2023-05-17T22:55:30.833Z,99.90
2023-05-17T22:58:00.491Z,99.90
2023-05-17T23:00:28.802Z,99.90
2023-05-17T23:02:56.893Z,99.90
2023-05-17T23:05:24.992Z,99.90
2023-05-17T23:07:53.473Z,99.90
2023-05-17T23:10:21.554Z,99.90
2023-05-17T23:12:52.060Z,99.90
2023-05-17T23:15:21.911Z,99.90
2023-05-17T23:17:50.993Z,99.90
2023-05-17T23:20:20.034Z,99.90
2023-05-17T23:22:48.621Z,99.90
2023-05-17T23:25:16.812Z,99.90
2023-05-17T23:27:44.836Z,99.90
2023-05-17T23:30:13.335Z,99.90
2023-05-17T23:32:46.706Z,99.90
2023-05-17T23:35:14.750Z,99.90
2023-05-17T23:37:42.987Z,99.90
2023-05-17T23:40:12.132Z,99.90
2023-05-17T23:42:41.764Z,99.90
2023-05-17T23:45:10.401Z,99.90
2023-05-17T23:47:41.064Z,99.90
2023-05-17T23:50:11.915Z,99.90
2023-05-17T23:52:40.085Z,99.90
2023-05-17T23:55:09.043Z,99.90
2023-05-17T23:57:37.850Z,99.90
